sensor_id;sensor_type;location;lat;lon;timestamp;P1;durP1;ratioP1;P2;durP2;ratioP2
78664;SDS011;67981;51.022;-2.870;2023-07-08T00:02:11;8.00;;;4.63;;
78664;SDS011;67981;51.022;-2.870;2023-07-08T00:04:37;7.85;;;5.03;;
78664;SDS011;67981;51.022;-2.870;2023-07-08T00:07:04;9.07;;;4.40;;
78664;SDS011;67981;51.022;-2.870;2023-07-08T00:09:30;9.30;;;5.13;;
78664;SDS011;67981;51.022;-2.870;2023-07-08T00:11:55;6.65;;;4.30;;
78664;SDS011;67981;51.022;-2.870;2023-07-08T00:14:22;9.20;;;4.45;;
78664;SDS011;67981;51.022;-2.870;2023-07-08T00:16:48;9.07;;;4.53;;
78664;SDS011;67981;51.022;-2.870;2023-07-08T00:19:14;9.15;;;4.80;;
78664;SDS011;67981;51.022;-2.870;2023-07-08T00:21:44;8.45;;;4.60;;
78664;SDS011;67981;51.022;-2.870;2023-07-08T00:24:10;9.27;;;5.15;;
78664;SDS011;67981;51.022;-2.870;2023-07-08T00:26:35;6.40;;;4.15;;
78664;SDS011;67981;51.022;-2.870;2023-07-08T00:29:01;12.32;;;4.57;;
78664;SDS011;67981;51.022;-2.870;2023-07-08T00:31:26;8.98;;;5.80;;
78664;SDS011;67981;51.022;-2.870;2023-07-08T00:33:52;7.95;;;4.65;;
78664;SDS011;67981;51.022;-2.870;2023-07-08T00:36:22;7.80;;;4.53;;
78664;SDS011;67981;51.022;-2.870;2023-07-08T00:38:49;8.40;;;4.43;;
78664;SDS011;67981;51.022;-2.870;2023-07-08T00:41:25;11.15;;;5.07;;
78664;SDS011;67981;51.022;-2.870;2023-07-08T00:43:56;9.82;;;5.28;;
78664;SDS011;67981;51.022;-2.870;2023-07-08T00:51:32;8.45;;;4.85;;
78664;SDS011;67981;51.022;-2.870;2023-07-08T00:54:04;12.20;;;5.45;;
78664;SDS011;67981;51.022;-2.870;2023-07-08T00:56:47;7.82;;;5.18;;
78664;SDS011;67981;51.022;-2.870;2023-07-08T00:59:19;9.85;;;4.88;;
78664;SDS011;67981;51.022;-2.870;2023-07-08T01:01:45;8.65;;;4.53;;
78664;SDS011;67981;51.022;-2.870;2023-07-08T01:04:17;7.20;;;5.35;;
78664;SDS011;67981;51.022;-2.870;2023-07-08T01:06:52;10.93;;;5.70;;
78664;SDS011;67981;51.022;-2.870;2023-07-08T01:09:26;8.55;;;4.72;;
78664;SDS011;67981;51.022;-2.870;2023-07-08T01:11:56;8.77;;;4.97;;
78664;SDS011;67981;51.022;-2.870;2023-07-08T01:14:26;7.40;;;3.85;;
78664;SDS011;67981;51.022;-2.870;2023-07-08T01:16:56;7.47;;;4.43;;
78664;SDS011;67981;51.022;-2.870;2023-07-08T01:19:22;8.63;;;4.50;;
78664;SDS011;67981;51.022;-2.870;2023-07-08T01:24:23;8.05;;;4.82;;
78664;SDS011;67981;51.022;-2.870;2023-07-08T01:26:49;7.28;;;4.40;;
78664;SDS011;67981;51.022;-2.870;2023-07-08T01:29:14;7.35;;;3.95;;
78664;SDS011;67981;51.022;-2.870;2023-07-08T01:31:40;7.25;;;4.95;;
78664;SDS011;67981;51.022;-2.870;2023-07-08T01:34:08;8.95;;;5.45;;
78664;SDS011;67981;51.022;-2.870;2023-07-08T01:36:37;6.55;;;4.80;;
78664;SDS011;67981;51.022;-2.870;2023-07-08T01:39:10;10.27;;;4.53;;
78664;SDS011;67981;51.022;-2.870;2023-07-08T01:41:38;9.82;;;4.97;;
78664;SDS011;67981;51.022;-2.870;2023-07-08T01:44:04;8.50;;;4.50;;
78664;SDS011;67981;51.022;-2.870;2023-07-08T01:46:29;7.97;;;4.03;;
78664;SDS011;67981;51.022;-2.870;2023-07-08T01:48:57;9.05;;;4.40;;
78664;SDS011;67981;51.022;-2.870;2023-07-08T01:51:25;9.20;;;4.57;;
78664;SDS011;67981;51.022;-2.870;2023-07-08T01:53:51;8.52;;;3.97;;
78664;SDS011;67981;51.022;-2.870;2023-07-08T01:56:17;8.15;;;4.18;;
78664;SDS011;67981;51.022;-2.870;2023-07-08T01:58:43;10.93;;;4.53;;
78664;SDS011;67981;51.022;-2.870;2023-07-08T02:01:09;7.25;;;4.38;;
78664;SDS011;67981;51.022;-2.870;2023-07-08T02:03:35;8.02;;;4.45;;
78664;SDS011;67981;51.022;-2.870;2023-07-08T02:06:01;9.15;;;4.22;;
78664;SDS011;67981;51.022;-2.870;2023-07-08T02:08:27;7.78;;;3.90;;
78664;SDS011;67981;51.022;-2.870;2023-07-08T02:10:54;9.20;;;4.30;;
78664;SDS011;67981;51.022;-2.870;2023-07-08T02:13:21;10.23;;;4.78;;
78664;SDS011;67981;51.022;-2.870;2023-07-08T02:15:48;8.90;;;5.28;;
78664;SDS011;67981;51.022;-2.870;2023-07-08T02:18:14;10.10;;;5.07;;
78664;SDS011;67981;51.022;-2.870;2023-07-08T02:20:39;9.70;;;4.40;;
78664;SDS011;67981;51.022;-2.870;2023-07-08T02:23:05;7.68;;;4.20;;
78664;SDS011;67981;51.022;-2.870;2023-07-08T02:25:30;9.30;;;4.90;;
78664;SDS011;67981;51.022;-2.870;2023-07-08T02:27:56;9.43;;;4.25;;
78664;SDS011;67981;51.022;-2.870;2023-07-08T02:30:25;6.60;;;4.13;;
78664;SDS011;67981;51.022;-2.870;2023-07-08T02:32:52;12.82;;;4.72;;
78664;SDS011;67981;51.022;-2.870;2023-07-08T02:35:27;8.70;;;4.97;;
78664;SDS011;67981;51.022;-2.870;2023-07-08T02:37:54;7.38;;;4.00;;
78664;SDS011;67981;51.022;-2.870;2023-07-08T02:40:21;9.98;;;4.53;;
78664;SDS011;67981;51.022;-2.870;2023-07-08T02:42:48;10.18;;;4.88;;
78664;SDS011;67981;51.022;-2.870;2023-07-08T02:45:14;8.63;;;4.38;;
78664;SDS011;67981;51.022;-2.870;2023-07-08T02:47:42;8.60;;;4.93;;
78664;SDS011;67981;51.022;-2.870;2023-07-08T02:50:08;11.55;;;4.35;;
78664;SDS011;67981;51.022;-2.870;2023-07-08T02:52:35;6.88;;;4.25;;
78664;SDS011;67981;51.022;-2.870;2023-07-08T02:55:00;9.07;;;4.72;;
78664;SDS011;67981;51.022;-2.870;2023-07-08T02:57:26;8.85;;;4.35;;
78664;SDS011;67981;51.022;-2.870;2023-07-08T02:59:51;9.48;;;4.50;;
78664;SDS011;67981;51.022;-2.870;2023-07-08T03:02:17;7.18;;;4.30;;
78664;SDS011;67981;51.022;-2.870;2023-07-08T03:04:42;8.60;;;4.72;;
78664;SDS011;67981;51.022;-2.870;2023-07-08T03:07:08;9.77;;;5.70;;
78664;SDS011;67981;51.022;-2.870;2023-07-08T03:09:39;8.50;;;4.90;;
78664;SDS011;67981;51.022;-2.870;2023-07-08T03:12:06;10.25;;;4.65;;
78664;SDS011;67981;51.022;-2.870;2023-07-08T03:14:32;9.85;;;5.18;;
78664;SDS011;67981;51.022;-2.870;2023-07-08T03:16:58;8.45;;;4.78;;
78664;SDS011;67981;51.022;-2.870;2023-07-08T03:19:23;11.00;;;5.03;;
78664;SDS011;67981;51.022;-2.870;2023-07-08T03:21:48;9.88;;;4.70;;
78664;SDS011;67981;51.022;-2.870;2023-07-08T03:24:14;8.52;;;5.22;;
78664;SDS011;67981;51.022;-2.870;2023-07-08T03:26:42;12.38;;;5.55;;
78664;SDS011;67981;51.022;-2.870;2023-07-08T03:29:10;8.70;;;4.90;;
78664;SDS011;67981;51.022;-2.870;2023-07-08T03:31:39;12.40;;;5.55;;
78664;SDS011;67981;51.022;-2.870;2023-07-08T03:34:04;11.65;;;5.88;;
78664;SDS011;67981;51.022;-2.870;2023-07-08T03:36:30;12.15;;;5.88;;
78664;SDS011;67981;51.022;-2.870;2023-07-08T03:38:56;9.35;;;5.53;;
78664;SDS011;67981;51.022;-2.870;2023-07-08T03:41:22;12.82;;;5.30;;
78664;SDS011;67981;51.022;-2.870;2023-07-08T03:43:48;11.35;;;5.45;;
78664;SDS011;67981;51.022;-2.870;2023-07-08T03:46:16;8.52;;;5.18;;
78664;SDS011;67981;51.022;-2.870;2023-07-08T03:48:43;9.18;;;5.30;;
78664;SDS011;67981;51.022;-2.870;2023-07-08T03:51:16;10.68;;;4.88;;
78664;SDS011;67981;51.022;-2.870;2023-07-08T03:53:46;11.05;;;5.07;;
78664;SDS011;67981;51.022;-2.870;2023-07-08T03:56:12;9.32;;;4.82;;
78664;SDS011;67981;51.022;-2.870;2023-07-08T03:58:38;9.20;;;5.32;;
78664;SDS011;67981;51.022;-2.870;2023-07-08T04:01:03;11.85;;;5.47;;
78664;SDS011;67981;51.022;-2.870;2023-07-08T04:03:29;8.43;;;4.95;;
78664;SDS011;67981;51.022;-2.870;2023-07-08T04:05:55;10.80;;;4.67;;
78664;SDS011;67981;51.022;-2.870;2023-07-08T04:08:20;10.27;;;5.00;;
78664;SDS011;67981;51.022;-2.870;2023-07-08T04:10:46;12.52;;;5.25;;
78664;SDS011;67981;51.022;-2.870;2023-07-08T04:13:11;8.65;;;5.00;;
78664;SDS011;67981;51.022;-2.870;2023-07-08T04:15:37;9.15;;;4.85;;
78664;SDS011;67981;51.022;-2.870;2023-07-08T04:18:02;9.15;;;4.40;;
78664;SDS011;67981;51.022;-2.870;2023-07-08T04:20:29;8.27;;;4.57;;
78664;SDS011;67981;51.022;-2.870;2023-07-08T04:22:54;11.30;;;5.18;;
78664;SDS011;67981;51.022;-2.870;2023-07-08T04:25:20;9.43;;;4.57;;
78664;SDS011;67981;51.022;-2.870;2023-07-08T04:27:46;12.57;;;4.68;;
78664;SDS011;67981;51.022;-2.870;2023-07-08T04:30:20;9.65;;;4.53;;
78664;SDS011;67981;51.022;-2.870;2023-07-08T04:32:49;6.88;;;4.32;;
78664;SDS011;67981;51.022;-2.870;2023-07-08T04:35:15;9.82;;;4.82;;
78664;SDS011;67981;51.022;-2.870;2023-07-08T04:37:40;8.00;;;5.18;;
78664;SDS011;67981;51.022;-2.870;2023-07-08T04:40:08;12.35;;;5.38;;
78664;SDS011;67981;51.022;-2.870;2023-07-08T04:42:41;9.18;;;4.70;;
78664;SDS011;67981;51.022;-2.870;2023-07-08T04:45:07;7.22;;;4.90;;
78664;SDS011;67981;51.022;-2.870;2023-07-08T04:47:32;11.00;;;5.53;;
78664;SDS011;67981;51.022;-2.870;2023-07-08T04:49:59;9.20;;;5.03;;
78664;SDS011;67981;51.022;-2.870;2023-07-08T04:52:24;8.05;;;4.65;;
78664;SDS011;67981;51.022;-2.870;2023-07-08T04:54:49;9.13;;;4.63;;
78664;SDS011;67981;51.022;-2.870;2023-07-08T04:57:15;8.57;;;4.80;;
78664;SDS011;67981;51.022;-2.870;2023-07-08T04:59:41;10.75;;;5.45;;
78664;SDS011;67981;51.022;-2.870;2023-07-08T05:02:07;11.35;;;5.45;;
78664;SDS011;67981;51.022;-2.870;2023-07-08T05:04:32;8.80;;;5.10;;
78664;SDS011;67981;51.022;-2.870;2023-07-08T05:06:58;11.10;;;4.97;;
78664;SDS011;67981;51.022;-2.870;2023-07-08T05:12:49;12.07;;;5.18;;
78664;SDS011;67981;51.022;-2.870;2023-07-08T05:15:15;10.90;;;5.30;;
78664;SDS011;67981;51.022;-2.870;2023-07-08T05:17:41;9.75;;;5.68;;
78664;SDS011;67981;51.022;-2.870;2023-07-08T05:20:08;9.27;;;5.13;;
78664;SDS011;67981;51.022;-2.870;2023-07-08T05:22:35;11.30;;;5.38;;
78664;SDS011;67981;51.022;-2.870;2023-07-08T05:25:01;9.77;;;5.13;;
78664;SDS011;67981;51.022;-2.870;2023-07-08T05:34:28;11.07;;;5.75;;
78664;SDS011;67981;51.022;-2.870;2023-07-08T05:36:53;10.32;;;5.30;;
78664;SDS011;67981;51.022;-2.870;2023-07-08T05:39:18;11.85;;;5.50;;
78664;SDS011;67981;51.022;-2.870;2023-07-08T05:41:44;13.20;;;7.07;;
78664;SDS011;67981;51.022;-2.870;2023-07-08T05:44:09;9.95;;;5.13;;
78664;SDS011;67981;51.022;-2.870;2023-07-08T05:46:34;8.35;;;4.95;;
78664;SDS011;67981;51.022;-2.870;2023-07-08T05:49:00;10.63;;;5.90;;
78664;SDS011;67981;51.022;-2.870;2023-07-08T05:51:25;8.32;;;5.15;;
78664;SDS011;67981;51.022;-2.870;2023-07-08T05:53:51;11.18;;;5.10;;
78664;SDS011;67981;51.022;-2.870;2023-07-08T05:56:16;12.07;;;5.20;;
78664;SDS011;67981;51.022;-2.870;2023-07-08T05:58:41;12.90;;;5.50;;
78664;SDS011;67981;51.022;-2.870;2023-07-08T06:01:07;8.52;;;4.80;;
78664;SDS011;67981;51.022;-2.870;2023-07-08T06:03:32;10.80;;;4.95;;
78664;SDS011;67981;51.022;-2.870;2023-07-08T06:05:57;13.48;;;4.78;;
78664;SDS011;67981;51.022;-2.870;2023-07-08T06:08:23;7.97;;;4.18;;
78664;SDS011;67981;51.022;-2.870;2023-07-08T06:10:49;7.63;;;4.35;;
78664;SDS011;67981;51.022;-2.870;2023-07-08T06:13:18;7.90;;;4.25;;
78664;SDS011;67981;51.022;-2.870;2023-07-08T06:15:43;8.25;;;4.07;;
78664;SDS011;67981;51.022;-2.870;2023-07-08T06:18:09;9.10;;;4.53;;
78664;SDS011;67981;51.022;-2.870;2023-07-08T06:20:34;9.32;;;4.85;;
78664;SDS011;67981;51.022;-2.870;2023-07-08T06:22:59;10.15;;;3.90;;
78664;SDS011;67981;51.022;-2.870;2023-07-08T06:25:25;8.52;;;4.57;;
78664;SDS011;67981;51.022;-2.870;2023-07-08T06:27:50;7.22;;;3.88;;
78664;SDS011;67981;51.022;-2.870;2023-07-08T06:30:16;10.25;;;4.10;;
78664;SDS011;67981;51.022;-2.870;2023-07-08T06:32:43;7.07;;;3.78;;
78664;SDS011;67981;51.022;-2.870;2023-07-08T06:35:08;11.85;;;4.82;;
78664;SDS011;67981;51.022;-2.870;2023-07-08T06:37:34;9.38;;;3.38;;
78664;SDS011;67981;51.022;-2.870;2023-07-08T06:39:59;10.43;;;4.78;;
78664;SDS011;67981;51.022;-2.870;2023-07-08T06:42:25;12.15;;;4.82;;
78664;SDS011;67981;51.022;-2.870;2023-07-08T06:44:51;6.43;;;3.88;;
78664;SDS011;67981;51.022;-2.870;2023-07-08T06:47:19;8.00;;;3.88;;
78664;SDS011;67981;51.022;-2.870;2023-07-08T06:49:46;7.30;;;3.72;;
78664;SDS011;67981;51.022;-2.870;2023-07-08T06:52:12;7.15;;;4.20;;
78664;SDS011;67981;51.022;-2.870;2023-07-08T06:54:39;7.57;;;3.92;;
78664;SDS011;67981;51.022;-2.870;2023-07-08T06:57:04;6.43;;;3.78;;
78664;SDS011;67981;51.022;-2.870;2023-07-08T06:59:30;16.08;;;4.55;;
78664;SDS011;67981;51.022;-2.870;2023-07-08T07:01:56;9.73;;;5.15;;
78664;SDS011;67981;51.022;-2.870;2023-07-08T07:04:21;8.32;;;3.83;;
78664;SDS011;67981;51.022;-2.870;2023-07-08T07:06:47;8.20;;;3.55;;
78664;SDS011;67981;51.022;-2.870;2023-07-08T07:09:12;8.73;;;3.83;;
78664;SDS011;67981;51.022;-2.870;2023-07-08T07:11:37;11.18;;;4.95;;
78664;SDS011;67981;51.022;-2.870;2023-07-08T07:14:03;7.53;;;4.32;;
78664;SDS011;67981;51.022;-2.870;2023-07-08T07:16:28;7.60;;;3.97;;
78664;SDS011;67981;51.022;-2.870;2023-07-08T07:18:54;10.07;;;3.58;;
78664;SDS011;67981;51.022;-2.870;2023-07-08T07:21:19;7.75;;;3.70;;
78664;SDS011;67981;51.022;-2.870;2023-07-08T07:23:45;7.82;;;3.85;;
78664;SDS011;67981;51.022;-2.870;2023-07-08T07:26:10;6.83;;;3.33;;
78664;SDS011;67981;51.022;-2.870;2023-07-08T07:28:36;7.18;;;4.20;;
78664;SDS011;67981;51.022;-2.870;2023-07-08T07:31:01;5.97;;;3.53;;
78664;SDS011;67981;51.022;-2.870;2023-07-08T07:33:27;7.03;;;3.30;;
78664;SDS011;67981;51.022;-2.870;2023-07-08T07:35:52;13.07;;;3.55;;
78664;SDS011;67981;51.022;-2.870;2023-07-08T07:38:18;6.57;;;3.30;;
78664;SDS011;67981;51.022;-2.870;2023-07-08T07:40:44;8.13;;;2.70;;
78664;SDS011;67981;51.022;-2.870;2023-07-08T07:43:10;6.13;;;3.40;;
78664;SDS011;67981;51.022;-2.870;2023-07-08T07:45:36;6.97;;;2.90;;
78664;SDS011;67981;51.022;-2.870;2023-07-08T07:48:01;5.90;;;3.10;;
78664;SDS011;67981;51.022;-2.870;2023-07-08T07:50:27;6.65;;;3.13;;
78664;SDS011;67981;51.022;-2.870;2023-07-08T07:52:53;7.40;;;2.67;;
78664;SDS011;67981;51.022;-2.870;2023-07-08T07:55:18;10.88;;;4.32;;
78664;SDS011;67981;51.022;-2.870;2023-07-08T07:57:44;8.82;;;3.30;;
78664;SDS011;67981;51.022;-2.870;2023-07-08T08:00:11;7.90;;;3.63;;
78664;SDS011;67981;51.022;-2.870;2023-07-08T08:02:36;9.48;;;3.63;;
78664;SDS011;67981;51.022;-2.870;2023-07-08T08:05:02;8.02;;;3.08;;
78664;SDS011;67981;51.022;-2.870;2023-07-08T08:07:28;10.10;;;5.38;;
78664;SDS011;67981;51.022;-2.870;2023-07-08T08:09:53;10.18;;;3.92;;
78664;SDS011;67981;51.022;-2.870;2023-07-08T08:12:20;7.93;;;3.53;;
78664;SDS011;67981;51.022;-2.870;2023-07-08T08:14:53;9.55;;;3.92;;
78664;SDS011;67981;51.022;-2.870;2023-07-08T08:17:26;9.13;;;3.22;;
78664;SDS011;67981;51.022;-2.870;2023-07-08T08:19:52;10.57;;;4.28;;
78664;SDS011;67981;51.022;-2.870;2023-07-08T08:22:17;9.85;;;4.13;;
78664;SDS011;67981;51.022;-2.870;2023-07-08T08:24:43;7.32;;;3.28;;
78664;SDS011;67981;51.022;-2.870;2023-07-08T08:27:10;8.20;;;4.00;;
78664;SDS011;67981;51.022;-2.870;2023-07-08T08:29:36;7.63;;;4.78;;
78664;SDS011;67981;51.022;-2.870;2023-07-08T08:32:01;10.45;;;4.72;;
78664;SDS011;67981;51.022;-2.870;2023-07-08T08:34:27;8.68;;;4.13;;
78664;SDS011;67981;51.022;-2.870;2023-07-08T08:36:53;9.73;;;3.88;;
78664;SDS011;67981;51.022;-2.870;2023-07-08T08:39:20;9.75;;;3.58;;
78664;SDS011;67981;51.022;-2.870;2023-07-08T08:41:46;10.07;;;3.75;;
78664;SDS011;67981;51.022;-2.870;2023-07-08T08:44:15;11.35;;;4.00;;
78664;SDS011;67981;51.022;-2.870;2023-07-08T08:46:48;6.07;;;3.17;;
78664;SDS011;67981;51.022;-2.870;2023-07-08T08:51:45;9.17;;;3.70;;
78664;SDS011;67981;51.022;-2.870;2023-07-08T08:54:12;10.02;;;4.47;;
78664;SDS011;67981;51.022;-2.870;2023-07-08T08:59:22;11.45;;;3.33;;
78664;SDS011;67981;51.022;-2.870;2023-07-08T09:02:22;9.63;;;4.88;;
78664;SDS011;67981;51.022;-2.870;2023-07-08T09:04:58;10.23;;;4.25;;
78664;SDS011;67981;51.022;-2.870;2023-07-08T09:07:29;12.55;;;4.88;;
78664;SDS011;67981;51.022;-2.870;2023-07-08T09:10:03;7.50;;;3.22;;
78664;SDS011;67981;51.022;-2.870;2023-07-08T09:12:35;8.00;;;3.97;;
78664;SDS011;67981;51.022;-2.870;2023-07-08T09:15:04;9.75;;;4.35;;
78664;SDS011;67981;51.022;-2.870;2023-07-08T09:17:37;7.63;;;3.88;;
78664;SDS011;67981;51.022;-2.870;2023-07-08T09:20:13;10.45;;;3.50;;
78664;SDS011;67981;51.022;-2.870;2023-07-08T09:28:12;8.02;;;2.90;;
78664;SDS011;67981;51.022;-2.870;2023-07-08T09:30:39;13.02;;;4.13;;
78664;SDS011;67981;51.022;-2.870;2023-07-08T09:33:05;10.35;;;3.45;;
78664;SDS011;67981;51.022;-2.870;2023-07-08T09:35:48;8.77;;;3.63;;
78664;SDS011;67981;51.022;-2.870;2023-07-08T09:38:15;11.23;;;3.78;;
78664;SDS011;67981;51.022;-2.870;2023-07-08T09:40:51;10.82;;;3.55;;
78664;SDS011;67981;51.022;-2.870;2023-07-08T09:43:35;12.90;;;3.63;;
78664;SDS011;67981;51.022;-2.870;2023-07-08T09:46:03;10.88;;;2.83;;
78664;SDS011;67981;51.022;-2.870;2023-07-08T09:48:31;10.60;;;4.07;;
78664;SDS011;67981;51.022;-2.870;2023-07-08T09:51:00;12.15;;;5.95;;
78664;SDS011;67981;51.022;-2.870;2023-07-08T09:53:26;11.60;;;4.20;;
78664;SDS011;67981;51.022;-2.870;2023-07-08T09:55:52;9.73;;;3.33;;
78664;SDS011;67981;51.022;-2.870;2023-07-08T10:00:57;7.22;;;4.32;;
78664;SDS011;67981;51.022;-2.870;2023-07-08T10:03:25;9.93;;;3.35;;
78664;SDS011;67981;51.022;-2.870;2023-07-08T10:05:54;12.55;;;3.72;;
78664;SDS011;67981;51.022;-2.870;2023-07-08T10:08:23;7.72;;;3.15;;
78664;SDS011;67981;51.022;-2.870;2023-07-08T10:10:52;10.10;;;3.60;;
78664;SDS011;67981;51.022;-2.870;2023-07-08T10:13:34;16.05;;;4.53;;
78664;SDS011;67981;51.022;-2.870;2023-07-08T10:16:24;9.73;;;3.75;;
78664;SDS011;67981;51.022;-2.870;2023-07-08T10:27:04;11.20;;;4.05;;
78664;SDS011;67981;51.022;-2.870;2023-07-08T10:29:54;16.50;;;4.03;;
78664;SDS011;67981;51.022;-2.870;2023-07-08T10:35:34;11.85;;;4.47;;
78664;SDS011;67981;51.022;-2.870;2023-07-08T10:43:28;10.98;;;4.97;;
78664;SDS011;67981;51.022;-2.870;2023-07-08T10:51:52;11.30;;;4.00;;
78664;SDS011;67981;51.022;-2.870;2023-07-08T10:55:10;8.57;;;3.88;;
78664;SDS011;67981;51.022;-2.870;2023-07-08T10:57:43;7.35;;;3.35;;
78664;SDS011;67981;51.022;-2.870;2023-07-08T11:00:37;8.40;;;4.25;;
78664;SDS011;67981;51.022;-2.870;2023-07-08T11:05:46;12.73;;;3.65;;
78664;SDS011;67981;51.022;-2.870;2023-07-08T11:13:27;6.93;;;4.00;;
78664;SDS011;67981;51.022;-2.870;2023-07-08T11:18:34;11.30;;;4.63;;
78664;SDS011;67981;51.022;-2.870;2023-07-08T11:21:06;7.55;;;4.30;;
78664;SDS011;67981;51.022;-2.870;2023-07-08T11:23:43;13.73;;;4.20;;
78664;SDS011;67981;51.022;-2.870;2023-07-08T11:28:43;10.07;;;4.00;;
78664;SDS011;67981;51.022;-2.870;2023-07-08T11:31:08;11.93;;;4.60;;
78664;SDS011;67981;51.022;-2.870;2023-07-08T11:33:35;7.95;;;4.10;;
78664;SDS011;67981;51.022;-2.870;2023-07-08T11:36:03;12.50;;;4.18;;
78664;SDS011;67981;51.022;-2.870;2023-07-08T11:38:29;10.93;;;4.53;;
78664;SDS011;67981;51.022;-2.870;2023-07-08T11:41:00;10.27;;;4.60;;
78664;SDS011;67981;51.022;-2.870;2023-07-08T11:43:42;11.18;;;5.13;;
78664;SDS011;67981;51.022;-2.870;2023-07-08T11:46:13;14.85;;;4.78;;
78664;SDS011;67981;51.022;-2.870;2023-07-08T11:48:44;14.30;;;5.00;;
78664;SDS011;67981;51.022;-2.870;2023-07-08T11:51:18;9.35;;;4.75;;
78664;SDS011;67981;51.022;-2.870;2023-07-08T11:53:49;15.70;;;5.53;;
78664;SDS011;67981;51.022;-2.870;2023-07-08T12:01:40;11.43;;;4.88;;
78664;SDS011;67981;51.022;-2.870;2023-07-08T12:09:25;14.20;;;5.83;;
78664;SDS011;67981;51.022;-2.870;2023-07-08T12:11:54;11.07;;;5.25;;
78664;SDS011;67981;51.022;-2.870;2023-07-08T12:14:23;15.07;;;5.85;;
78664;SDS011;67981;51.022;-2.870;2023-07-08T12:16:51;12.43;;;5.80;;
78664;SDS011;67981;51.022;-2.870;2023-07-08T12:19:17;11.23;;;5.32;;
78664;SDS011;67981;51.022;-2.870;2023-07-08T12:21:45;9.60;;;4.80;;
78664;SDS011;67981;51.022;-2.870;2023-07-08T12:24:12;9.57;;;3.65;;
78664;SDS011;67981;51.022;-2.870;2023-07-08T12:26:39;8.70;;;3.65;;
78664;SDS011;67981;51.022;-2.870;2023-07-08T12:29:06;7.63;;;3.55;;
78664;SDS011;67981;51.022;-2.870;2023-07-08T12:31:31;9.32;;;4.07;;
78664;SDS011;67981;51.022;-2.870;2023-07-08T12:33:57;7.32;;;3.65;;
78664;SDS011;67981;51.022;-2.870;2023-07-08T12:36:28;9.15;;;4.22;;
78664;SDS011;67981;51.022;-2.870;2023-07-08T12:38:55;5.70;;;3.25;;
78664;SDS011;67981;51.022;-2.870;2023-07-08T12:41:29;6.45;;;3.53;;
78664;SDS011;67981;51.022;-2.870;2023-07-08T12:43:58;5.97;;;3.65;;
78664;SDS011;67981;51.022;-2.870;2023-07-08T12:46:24;8.70;;;3.95;;
78664;SDS011;67981;51.022;-2.870;2023-07-08T12:48:50;7.68;;;3.58;;
78664;SDS011;67981;51.022;-2.870;2023-07-08T12:51:16;6.57;;;3.17;;
78664;SDS011;67981;51.022;-2.870;2023-07-08T12:53:45;6.35;;;3.42;;
78664;SDS011;67981;51.022;-2.870;2023-07-08T12:56:12;5.53;;;3.25;;
78664;SDS011;67981;51.022;-2.870;2023-07-08T12:58:39;8.98;;;3.58;;
78664;SDS011;67981;51.022;-2.870;2023-07-08T13:01:07;5.70;;;3.00;;
78664;SDS011;67981;51.022;-2.870;2023-07-08T13:03:43;7.97;;;3.97;;
78664;SDS011;67981;51.022;-2.870;2023-07-08T13:06:14;9.25;;;3.17;;
78664;SDS011;67981;51.022;-2.870;2023-07-08T13:08:42;7.43;;;3.25;;
78664;SDS011;67981;51.022;-2.870;2023-07-08T13:11:08;6.18;;;3.13;;
78664;SDS011;67981;51.022;-2.870;2023-07-08T13:13:41;6.07;;;3.38;;
78664;SDS011;67981;51.022;-2.870;2023-07-08T13:16:13;5.60;;;3.30;;
78664;SDS011;67981;51.022;-2.870;2023-07-08T13:18:40;5.07;;;2.85;;
78664;SDS011;67981;51.022;-2.870;2023-07-08T13:21:13;5.82;;;3.08;;
78664;SDS011;67981;51.022;-2.870;2023-07-08T13:23:41;7.35;;;2.75;;
78664;SDS011;67981;51.022;-2.870;2023-07-08T13:26:14;4.53;;;2.25;;
78664;SDS011;67981;51.022;-2.870;2023-07-08T13:28:41;4.80;;;2.13;;
78664;SDS011;67981;51.022;-2.870;2023-07-08T13:31:20;5.10;;;2.67;;
78664;SDS011;67981;51.022;-2.870;2023-07-08T13:33:48;4.50;;;2.20;;
78664;SDS011;67981;51.022;-2.870;2023-07-08T13:36:16;3.83;;;2.63;;
78664;SDS011;67981;51.022;-2.870;2023-07-08T13:38:43;5.18;;;2.72;;
78664;SDS011;67981;51.022;-2.870;2023-07-08T13:41:10;5.53;;;3.03;;
78664;SDS011;67981;51.022;-2.870;2023-07-08T13:43:38;5.85;;;3.00;;
78664;SDS011;67981;51.022;-2.870;2023-07-08T13:46:06;5.40;;;3.25;;
78664;SDS011;67981;51.022;-2.870;2023-07-08T13:48:53;5.93;;;4.03;;
78664;SDS011;67981;51.022;-2.870;2023-07-08T13:51:20;6.30;;;4.32;;
78664;SDS011;67981;51.022;-2.870;2023-07-08T13:53:56;5.47;;;4.05;;
78664;SDS011;67981;51.022;-2.870;2023-07-08T13:56:26;6.95;;;3.70;;
78664;SDS011;67981;51.022;-2.870;2023-07-08T13:58:53;9.02;;;4.40;;
78664;SDS011;67981;51.022;-2.870;2023-07-08T14:01:26;8.93;;;4.15;;
78664;SDS011;67981;51.022;-2.870;2023-07-08T14:03:54;7.72;;;4.63;;
78664;SDS011;67981;51.022;-2.870;2023-07-08T14:06:21;6.60;;;5.03;;
78664;SDS011;67981;51.022;-2.870;2023-07-08T14:08:50;8.38;;;5.07;;
78664;SDS011;67981;51.022;-2.870;2023-07-08T14:11:35;11.63;;;4.63;;
78664;SDS011;67981;51.022;-2.870;2023-07-08T14:14:00;7.68;;;4.50;;
78664;SDS011;67981;51.022;-2.870;2023-07-08T14:16:27;8.60;;;4.10;;
78664;SDS011;67981;51.022;-2.870;2023-07-08T14:18:55;11.10;;;5.15;;
78664;SDS011;67981;51.022;-2.870;2023-07-08T14:21:23;7.72;;;4.78;;
78664;SDS011;67981;51.022;-2.870;2023-07-08T14:23:49;12.90;;;5.53;;
78664;SDS011;67981;51.022;-2.870;2023-07-08T14:26:14;9.07;;;4.78;;
78664;SDS011;67981;51.022;-2.870;2023-07-08T14:28:40;8.30;;;5.07;;
78664;SDS011;67981;51.022;-2.870;2023-07-08T14:31:12;9.20;;;6.43;;
78664;SDS011;67981;51.022;-2.870;2023-07-08T14:33:42;12.80;;;6.53;;
78664;SDS011;67981;51.022;-2.870;2023-07-08T14:36:10;7.82;;;4.97;;
78664;SDS011;67981;51.022;-2.870;2023-07-08T14:38:36;9.93;;;6.45;;
78664;SDS011;67981;51.022;-2.870;2023-07-08T14:41:02;10.20;;;6.32;;
78664;SDS011;67981;51.022;-2.870;2023-07-08T14:43:29;9.45;;;5.55;;
78664;SDS011;67981;51.022;-2.870;2023-07-08T14:45:56;10.93;;;5.30;;
78664;SDS011;67981;51.022;-2.870;2023-07-08T14:48:24;8.13;;;6.03;;
78664;SDS011;67981;51.022;-2.870;2023-07-08T14:53:17;7.70;;;4.83;;
78664;SDS011;67981;51.022;-2.870;2023-07-08T14:55:44;9.00;;;4.50;;
78664;SDS011;67981;51.022;-2.870;2023-07-08T14:58:21;5.15;;;3.78;;
78664;SDS011;67981;51.022;-2.870;2023-07-08T15:00:50;4.63;;;3.22;;
78664;SDS011;67981;51.022;-2.870;2023-07-08T15:03:16;4.38;;;3.25;;
78664;SDS011;67981;51.022;-2.870;2023-07-08T15:05:42;4.82;;;3.30;;
78664;SDS011;67981;51.022;-2.870;2023-07-08T15:08:07;5.27;;;3.13;;
78664;SDS011;67981;51.022;-2.870;2023-07-08T15:10:33;5.07;;;3.08;;
78664;SDS011;67981;51.022;-2.870;2023-07-08T15:13:00;5.22;;;3.05;;
78664;SDS011;67981;51.022;-2.870;2023-07-08T15:15:31;4.60;;;2.65;;
78664;SDS011;67981;51.022;-2.870;2023-07-08T15:18:00;6.63;;;3.08;;
78664;SDS011;67981;51.022;-2.870;2023-07-08T15:20:27;4.28;;;2.83;;
78664;SDS011;67981;51.022;-2.870;2023-07-08T15:22:52;4.45;;;3.25;;
78664;SDS011;67981;51.022;-2.870;2023-07-08T15:25:18;4.50;;;2.92;;
78664;SDS011;67981;51.022;-2.870;2023-07-08T15:27:44;4.35;;;2.17;;
78664;SDS011;67981;51.022;-2.870;2023-07-08T15:30:14;4.72;;;2.50;;
78664;SDS011;67981;51.022;-2.870;2023-07-08T15:32:43;6.43;;;2.35;;
78664;SDS011;67981;51.022;-2.870;2023-07-08T15:35:20;3.97;;;2.15;;
78664;SDS011;67981;51.022;-2.870;2023-07-08T15:37:46;3.33;;;2.15;;
78664;SDS011;67981;51.022;-2.870;2023-07-08T15:40:13;5.00;;;2.28;;
78664;SDS011;67981;51.022;-2.870;2023-07-08T15:42:40;3.92;;;2.03;;
78664;SDS011;67981;51.022;-2.870;2023-07-08T15:45:13;4.60;;;1.90;;
78664;SDS011;67981;51.022;-2.870;2023-07-08T15:47:40;3.63;;;1.80;;
78664;SDS011;67981;51.022;-2.870;2023-07-08T15:50:16;4.28;;;1.92;;
78664;SDS011;67981;51.022;-2.870;2023-07-08T15:52:43;4.30;;;1.75;;
78664;SDS011;67981;51.022;-2.870;2023-07-08T15:55:09;4.30;;;1.58;;
78664;SDS011;67981;51.022;-2.870;2023-07-08T16:00:15;8.05;;;2.20;;